메인 페이지
METAR-TAF:

METAR-TAF

공항 :

벨리코터르노보, 불가리아

위도: 43-09N, 경도: 025-36E, 고도: 87m

현재 날씨관측

예보는 11분 전, 19:00시(UTC)에 발표되었습니다.
서북서6kt
온도 14°C
습도 100%
기압 1013 hPa
시정: 7000m
고도 1700ft 상공 구름 보통
약한소나기

METAR: LBGO 251900Z AUTO 30006KT 7000 -SHRA SCT017 14/14 Q1013

시각: 21:11 (19:11 UTC)

예보

예보는 2 시간 11분 전, 17:00시(UTC)에 발표되었습니다.
예보 대상 시간: 25일 18시부터 26일 18시까지 (UTC)
여러 방향의 바람 4kt
시정 10km 이상
고도 4000ft 상공 구름 많음
일시적
25일 18시부터 25일 20시까지 (UTC)
시정: 5000m
고도 1500ft 상공 구름 보통
고도 3000ft 상공 흐림
일시적
25일 21시부터 26일 07시까지 (UTC)
시정: 3000m
고도 1000ft 상공 구름 조금
고도 3000ft 상공 구름 보통, 적란운.
고도 3500ft 상공 흐림
소나기
확률 30%
25일 23시부터 26일 02시까지 (UTC)
고도 2500ft 상공 구름 보통, 적란운.
고도 3000ft 상공 흐림
뇌우, 비
일시적
26일 02시부터 26일 06시까지 (UTC)
시정: 1500m
고도 800ft 상공 구름 보통
박무

TAF: LBGO 251700Z 2518/2618 VRB04KT 9999 BKN040 TEMPO 2518/2520 5000 RA SCT015 OVC030 TEMPO 2521/2607 3000 SHRA FEW010 SCT030CB OVC035 PROB30 2523/2602 TSRA SCT025CB OVC030 TEMPO 2602/2606 1500 BR SCT008

4,000개 이상의 공항 관측 자료 및 예보 (METAR 및 TAF 보고).

지도상에서 검색 가능한 기상관측소가 노란 점과 빨간 점으로 표시되어 있습니다.

기상관측소 명을 보려면 표시 위로 마우스를 이동하세요.

날씨 관측과 예보를 보려면 클릭하세요.

지도 변경 : 확대하려면 엑스 표시가 있는 녹색 버튼, 축소하려면 빼기 표시가 있는 녹색 버튼, 다음 페이지의 지도를 보려면 녹색 화살표를 클릭하세요.


METAR-TAF: